createdAt,value
2018-08-07T00:00:41.455Z,56.03
2018-08-07T00:03:11.685Z,58.11
2018-08-07T00:05:40.702Z,57.55
2018-08-07T00:08:09.784Z,57.40
2018-08-07T00:10:38.728Z,58.40
2018-08-07T00:13:07.681Z,58.68
2018-08-07T00:15:36.644Z,59.68
2018-08-07T00:18:05.661Z,57.20
2018-08-07T00:20:34.607Z,58.96
2018-08-07T00:23:03.551Z,59.33
2018-08-07T00:25:32.844Z,60.01
2018-08-07T00:28:02.125Z,60.54
2018-08-07T00:30:31.071Z,59.02
2018-08-07T00:33:00.031Z,59.85
2018-08-07T00:35:28.944Z,60.11
2018-08-07T00:37:57.931Z,60.13
2018-08-07T00:40:26.906Z,59.91
2018-08-07T00:42:55.880Z,61.22
2018-08-07T00:45:24.841Z,60.83
2018-08-07T00:47:53.989Z,61.23
2018-08-07T00:50:22.922Z,61.07
2018-08-07T00:52:52.289Z,60.59
2018-08-07T00:55:21.584Z,61.71
2018-08-07T00:57:50.986Z,62.29
2018-08-07T01:00:19.943Z,61.76
2018-08-07T01:02:48.864Z,62.57
2018-08-07T01:05:18.573Z,62.47
2018-08-07T01:07:48.540Z,62.09
2018-08-07T01:10:18.565Z,62.46
2018-08-07T01:12:47.661Z,62.17
2018-08-07T01:15:19.561Z,62.23
2018-08-07T01:17:48.672Z,63.18
2018-08-07T01:20:22.473Z,63.09
2018-08-07T01:22:51.572Z,62.97
2018-08-07T01:25:22.859Z,63.26
2018-08-07T01:27:51.802Z,62.77
2018-08-07T01:30:24.401Z,62.99
2018-08-07T01:32:54.194Z,63.55
2018-08-07T01:35:23.718Z,63.28
2018-08-07T01:37:52.672Z,63.67
2018-08-07T01:40:21.624Z,64.80
2018-08-07T01:42:50.556Z,63.89
2018-08-07T01:45:19.576Z,63.76
2018-08-07T01:47:48.521Z,63.51
2018-08-07T01:50:19.216Z,63.41
2018-08-07T01:52:48.185Z,63.54
2018-08-07T01:55:22.750Z,63.72
2018-08-07T01:57:51.709Z,64.42
2018-08-07T02:00:20.832Z,64.69
2018-08-07T02:02:50.324Z,64.44
2018-08-07T02:05:19.509Z,64.12
2018-08-07T02:07:48.448Z,64.85
2018-08-07T02:10:18.537Z,64.14
2018-08-07T02:12:47.562Z,64.50
2018-08-07T02:15:17.037Z,64.96
2018-08-07T02:17:45.957Z,66.18
2018-08-07T02:20:16.152Z,66.46
2018-08-07T02:22:45.666Z,66.72
2018-08-07T02:25:16.196Z,65.79
2018-08-07T02:27:45.707Z,65.52
2018-08-07T02:30:15.289Z,66.29
2018-08-07T02:32:44.290Z,66.22
2018-08-07T02:35:14.435Z,66.50
2018-08-07T02:37:44.451Z,67.12
2018-08-07T02:40:14.098Z,66.00
2018-08-07T02:42:43.470Z,66.18
2018-08-07T02:45:14.412Z,66.97
2018-08-07T02:47:44.000Z,66.53
2018-08-07T02:50:14.729Z,66.85
2018-08-07T02:52:43.711Z,66.71
2018-08-07T02:55:12.831Z,66.94
2018-08-07T02:57:42.425Z,66.90
2018-08-07T03:00:18.815Z,67.27
2018-08-07T03:02:47.925Z,67.29
2018-08-07T03:05:17.561Z,67.52
2018-08-07T03:07:46.696Z,66.04
2018-08-07T03:10:15.668Z,67.56
2018-08-07T03:12:44.586Z,67.48
2018-08-07T03:15:16.042Z,67.69
2018-08-07T03:17:46.045Z,68.11
2018-08-07T03:20:15.084Z,67.04
2018-08-07T03:22:44.013Z,67.82
2018-08-07T03:25:13.747Z,66.91
2018-08-07T03:27:43.773Z,66.99
2018-08-07T03:30:15.540Z,68.36
2018-08-07T03:32:44.961Z,67.48
2018-08-07T03:35:13.904Z,67.67
2018-08-07T03:37:43.209Z,68.75
2018-08-07T03:40:14.477Z,67.57
2018-08-07T03:42:43.543Z,67.08
2018-08-07T03:45:17.067Z,67.24
2018-08-07T03:47:46.694Z,66.53
2018-08-07T03:50:15.659Z,66.81
2018-08-07T03:52:44.662Z,66.91
2018-08-07T03:55:15.608Z,66.10
2018-08-07T03:57:45.223Z,65.56
2018-08-07T04:00:16.151Z,66.18
2018-08-07T04:02:45.251Z,66.29
2018-08-07T04:05:14.355Z,65.72
2018-08-07T04:07:43.307Z,65.67
2018-08-07T04:10:14.018Z,66.06
2018-08-07T04:12:43.002Z,65.03
2018-08-07T04:15:13.604Z,64.67
2018-08-07T04:17:43.130Z,65.56
2018-08-07T04:20:14.621Z,65.33
2018-08-07T04:22:43.601Z,64.72
2018-08-07T04:25:12.617Z,65.22
2018-08-07T04:27:41.691Z,64.94
2018-08-07T04:30:14.162Z,65.89
2018-08-07T04:32:43.565Z,64.86
2018-08-07T04:35:13.057Z,65.04
2018-08-07T04:37:42.038Z,64.77
2018-08-07T04:40:11.345Z,64.78
2018-08-07T04:42:40.968Z,64.88
2018-08-07T04:45:14.254Z,64.50
2018-08-07T04:47:43.855Z,64.14
2018-08-07T04:50:12.794Z,63.73
2018-08-07T04:52:42.022Z,62.92
2018-08-07T04:55:17.327Z,64.09
2018-08-07T04:57:46.274Z,62.92
2018-08-07T05:00:16.778Z,63.53
2018-08-07T05:02:46.499Z,62.70
2018-08-07T05:05:15.682Z,64.62
2018-08-07T05:07:44.764Z,61.64
2018-08-07T05:10:15.475Z,61.86
2018-08-07T05:12:45.038Z,58.77
2018-08-07T05:15:14.220Z,59.32
2018-08-07T05:17:44.495Z,59.28
2018-08-07T05:20:13.368Z,58.01
2018-08-07T05:22:42.289Z,58.14
2018-08-07T05:25:11.843Z,57.71
2018-08-07T05:27:40.934Z,57.26
2018-08-07T05:30:11.460Z,56.54
2018-08-07T05:32:40.409Z,57.08
2018-08-07T05:35:10.042Z,55.87
2018-08-07T05:37:38.973Z,55.97
2018-08-07T05:40:08.961Z,54.72
2018-08-07T05:42:37.866Z,55.54
2018-08-07T05:45:08.116Z,54.20
2018-08-07T05:47:36.989Z,54.73
2018-08-07T05:50:08.523Z,54.21
2018-08-07T05:52:37.319Z,53.42
2018-08-07T05:55:06.467Z,51.07
2018-08-07T05:57:35.492Z,49.69
2018-08-07T06:00:07.421Z,46.53
2018-08-07T06:02:36.362Z,44.42
2018-08-07T06:05:09.920Z,41.29
2018-08-07T06:07:43.559Z,38.83
2018-08-07T06:10:15.271Z,37.54
2018-08-07T06:12:52.708Z,36.19
2018-08-07T06:15:22.412Z,34.42
2018-08-07T06:17:53.883Z,35.26
2018-08-07T06:20:28.612Z,34.41
2018-08-07T06:22:58.742Z,33.10
2018-08-07T06:25:30.385Z,31.87
2018-08-07T06:28:00.178Z,32.65
2018-08-07T06:30:30.512Z,34.75
2018-08-07T06:32:59.378Z,32.75
2018-08-07T06:35:28.272Z,34.53
2018-08-07T06:37:57.208Z,34.98
2018-08-07T06:40:26.168Z,33.61
2018-08-07T06:42:55.123Z,33.23
2018-08-07T06:45:23.972Z,33.47
2018-08-07T06:47:52.878Z,33.63
2018-08-07T06:50:21.834Z,33.86
2018-08-07T06:52:51.131Z,32.83
2018-08-07T06:55:20.132Z,33.21
2018-08-07T06:57:49.107Z,32.34
2018-08-07T07:00:20.282Z,33.33
2018-08-07T07:02:49.320Z,33.96
2018-08-07T07:05:18.301Z,34.19
2018-08-07T07:07:47.271Z,33.46
2018-08-07T07:10:16.180Z,33.19
2018-08-07T07:12:45.975Z,31.76
2018-08-07T07:15:15.862Z,30.41
2018-08-07T07:17:45.993Z,31.10
2018-08-07T07:20:16.108Z,31.97
2018-08-07T07:22:46.263Z,29.70
2018-08-07T07:25:15.240Z,31.20
2018-08-07T07:27:44.256Z,31.75
2018-08-07T07:30:16.159Z,31.14
2018-08-07T07:32:46.396Z,31.99
2018-08-07T07:35:16.100Z,31.39
2018-08-07T07:37:45.026Z,30.46
2018-08-07T07:40:13.989Z,30.82
2018-08-07T07:42:43.102Z,31.23
2018-08-07T07:45:14.115Z,29.66
2018-08-07T07:47:43.029Z,30.35
2018-08-07T07:50:14.266Z,29.79
2018-08-07T07:52:43.589Z,30.17
2018-08-07T07:55:13.713Z,29.97
2018-08-07T07:57:42.768Z,29.59
2018-08-07T08:00:28.664Z,30.76
2018-08-07T08:02:57.595Z,30.31
2018-08-07T08:05:27.036Z,29.75
2018-08-07T08:07:56.364Z,29.46
2018-08-07T08:10:25.484Z,29.09
2018-08-07T08:12:54.384Z,28.55
2018-08-07T08:15:23.309Z,29.64
2018-08-07T08:17:52.285Z,30.06
2018-08-07T08:20:23.806Z,30.38
2018-08-07T08:22:53.404Z,30.20
2018-08-07T08:25:22.313Z,29.77
2018-08-07T08:27:51.387Z,28.06
2018-08-07T08:30:20.312Z,29.12
2018-08-07T08:32:49.216Z,28.27
2018-08-07T08:35:19.107Z,28.56
2018-08-07T08:37:48.613Z,28.07
2018-08-07T08:40:22.289Z,26.90
2018-08-07T08:42:52.553Z,26.57
2018-08-07T08:45:24.162Z,28.06
2018-08-07T08:47:56.320Z,28.49
2018-08-07T08:50:25.258Z,27.40
2018-08-07T08:52:54.223Z,26.69
2018-08-07T08:55:23.148Z,27.86
2018-08-07T08:57:52.082Z,28.27
2018-08-07T09:00:27.759Z,26.53
2018-08-07T09:02:57.857Z,27.51
2018-08-07T09:05:26.795Z,25.77
2018-08-07T09:07:55.680Z,26.82
2018-08-07T09:10:26.437Z,26.56
2018-08-07T09:12:55.779Z,28.01
2018-08-07T09:15:24.693Z,26.33
2018-08-07T09:17:53.662Z,25.83
2018-08-07T09:20:24.607Z,25.80
2018-08-07T09:22:53.551Z,25.03
2018-08-07T09:25:23.775Z,24.54
2018-08-07T09:27:52.672Z,24.72
2018-08-07T09:30:23.048Z,24.51
2018-08-07T09:32:52.658Z,24.72
2018-08-07T09:35:22.418Z,25.11
2018-08-07T09:37:51.360Z,25.33
2018-08-07T09:40:21.262Z,25.24
2018-08-07T09:42:53.047Z,24.34
2018-08-07T09:45:28.720Z,25.94
2018-08-07T09:47:57.712Z,25.54
2018-08-07T09:50:26.653Z,25.06
2018-08-07T09:52:55.676Z,24.35
2018-08-07T09:55:24.605Z,23.89
2018-08-07T09:57:53.534Z,23.02
2018-08-07T10:00:27.996Z,22.80
2018-08-07T10:02:59.604Z,23.41
2018-08-07T10:05:30.022Z,22.92
2018-08-07T10:07:58.760Z,22.32
2018-08-07T10:10:27.795Z,22.45
2018-08-07T10:12:56.716Z,22.14
2018-08-07T10:15:25.620Z,22.43
2018-08-07T10:17:54.614Z,21.68
2018-08-07T10:20:23.495Z,22.25
2018-08-07T10:22:52.425Z,21.98
2018-08-07T10:25:21.503Z,22.46
2018-08-07T10:27:50.662Z,22.01
2018-08-07T10:30:22.972Z,21.38
2018-08-07T10:32:52.444Z,21.66
2018-08-07T10:35:21.549Z,22.39
2018-08-07T10:37:50.701Z,22.28
2018-08-07T10:40:22.188Z,21.58
2018-08-07T10:42:51.261Z,20.32
2018-08-07T10:45:21.397Z,20.15
2018-08-07T10:47:52.372Z,20.80
2018-08-07T10:50:25.043Z,20.54
2018-08-07T10:52:54.106Z,21.15
2018-08-07T10:55:23.631Z,19.80
2018-08-07T10:57:53.934Z,20.47
2018-08-07T11:00:25.904Z,19.38
2018-08-07T11:02:55.499Z,19.52
2018-08-07T11:05:25.219Z,20.00
2018-08-07T11:07:54.145Z,18.86
2018-08-07T11:10:23.419Z,19.90
2018-08-07T11:12:52.909Z,20.59
2018-08-07T11:15:28.357Z,21.91
2018-08-07T11:17:58.285Z,20.62
2018-08-07T11:20:27.608Z,20.76
2018-08-07T11:22:58.101Z,19.86
2018-08-07T11:25:27.920Z,19.93
2018-08-07T11:27:56.899Z,20.69
2018-08-07T11:30:26.932Z,19.62
2018-08-07T11:32:57.164Z,19.46
2018-08-07T11:35:26.560Z,19.97
2018-08-07T11:37:59.136Z,20.00
2018-08-07T11:40:28.762Z,20.68
2018-08-07T11:42:58.311Z,20.12
2018-08-07T11:45:31.844Z,20.78
2018-08-07T11:48:00.805Z,20.12
2018-08-07T11:50:31.075Z,19.89
2018-08-07T11:52:59.989Z,20.23
2018-08-07T11:55:29.157Z,20.17
2018-08-07T11:57:58.128Z,19.38
2018-08-07T12:00:34.554Z,19.28
2018-08-07T12:03:03.746Z,18.59
2018-08-07T12:05:32.727Z,19.23
2018-08-07T12:08:01.800Z,18.74
2018-08-07T12:10:30.668Z,20.03
2018-08-07T12:16:04.755Z,18.83
2018-08-07T12:18:34.498Z,19.57
2018-08-07T12:21:04.108Z,20.17
2018-08-07T12:23:33.392Z,19.21
2018-08-07T12:26:02.491Z,18.58
2018-08-07T12:28:32.263Z,19.33
2018-08-07T12:31:01.359Z,18.91
2018-08-07T12:33:34.343Z,19.62
2018-08-07T12:36:03.769Z,19.18
2018-08-07T12:38:39.749Z,19.32
2018-08-07T12:41:09.540Z,18.91
2018-08-07T12:43:38.481Z,19.15
2018-08-07T12:46:38.316Z,18.73
2018-08-07T12:49:07.546Z,18.27
2018-08-07T12:51:37.201Z,19.18
2018-08-07T12:54:06.472Z,19.34
2018-08-07T12:56:37.114Z,19.70
2018-08-07T12:59:06.225Z,18.48
2018-08-07T13:01:36.241Z,19.14
2018-08-07T13:04:06.065Z,19.20
2018-08-07T13:06:37.451Z,18.50
2018-08-07T13:09:09.498Z,18.94
2018-08-07T13:11:38.408Z,18.29
2018-08-07T13:14:07.347Z,19.56
2018-08-07T13:16:36.226Z,19.25
2018-08-07T13:19:05.261Z,18.97
2018-08-07T13:21:34.239Z,18.35
2018-08-07T13:24:03.402Z,18.84
2018-08-07T13:26:32.643Z,18.03
2018-08-07T13:29:01.533Z,17.53
2018-08-07T13:31:30.480Z,18.02
2018-08-07T13:33:59.335Z,18.67
2018-08-07T13:36:28.239Z,18.48
2018-08-07T13:38:57.131Z,18.30
2018-08-07T13:41:26.076Z,18.81
2018-08-07T13:43:54.970Z,19.06
2018-08-07T13:46:23.860Z,17.95
2018-08-07T13:48:52.803Z,18.53
2018-08-07T13:51:22.088Z,18.04
2018-08-07T13:53:51.020Z,18.38
2018-08-07T13:56:20.039Z,17.92
2018-08-07T13:58:48.930Z,18.04
2018-08-07T14:01:18.020Z,18.83
2018-08-07T14:03:46.918Z,18.48
2018-08-07T14:06:15.814Z,19.80
2018-08-07T14:08:44.727Z,19.23
2018-08-07T14:11:14.231Z,18.71
2018-08-07T14:13:43.150Z,19.73
2018-08-07T14:16:12.121Z,20.59
2018-08-07T14:18:41.063Z,20.52
2018-08-07T14:21:09.954Z,18.94
2018-08-07T14:23:38.893Z,18.90
2018-08-07T14:26:07.817Z,18.00
2018-08-07T14:28:36.845Z,18.04
2018-08-07T14:31:06.717Z,17.95
2018-08-07T14:33:35.616Z,18.41
2018-08-07T14:36:04.603Z,17.82
2018-08-07T14:38:33.495Z,18.20
2018-08-07T14:41:03.311Z,17.10
2018-08-07T14:43:32.267Z,18.49
2018-08-07T14:46:01.276Z,18.87
2018-08-07T14:48:59.756Z,19.23
2018-08-07T14:51:28.673Z,17.79
2018-08-07T14:53:57.703Z,18.20
2018-08-07T14:56:26.608Z,18.56
2018-08-07T14:58:55.560Z,19.65
2018-08-07T15:01:24.975Z,19.63
2018-08-07T15:03:55.042Z,19.09
2018-08-07T15:06:25.094Z,18.61
2018-08-07T15:08:54.977Z,18.77
2018-08-07T15:11:25.518Z,19.42
2018-08-07T15:13:55.422Z,18.55
2018-08-07T15:16:24.630Z,19.27
2018-08-07T15:18:53.995Z,19.47
2018-08-07T15:21:22.977Z,19.23
2018-08-07T15:23:51.930Z,19.10
2018-08-07T15:26:20.888Z,19.84
2018-08-07T15:28:49.869Z,19.96
2018-08-07T15:31:18.811Z,20.11
2018-08-07T15:33:47.764Z,20.45
2018-08-07T15:36:16.754Z,21.20
2018-08-07T15:38:45.749Z,19.97
2018-08-07T15:41:18.472Z,19.93
2018-08-07T15:43:47.433Z,20.81
2018-08-07T15:46:16.360Z,20.39
2018-08-07T15:48:46.254Z,19.91
2018-08-07T15:51:16.374Z,19.40
2018-08-07T15:53:45.276Z,19.65
2018-08-07T15:56:16.360Z,20.47
2018-08-07T15:58:46.883Z,19.87
2018-08-07T16:01:16.019Z,20.98
2018-08-07T16:03:47.121Z,19.64
2018-08-07T16:06:16.191Z,20.82
2018-08-07T16:08:45.244Z,20.21
2018-08-07T16:11:14.203Z,21.19
2018-08-07T16:13:43.130Z,20.63
2018-08-07T16:16:12.070Z,20.36
2018-08-07T16:18:40.983Z,21.56
2018-08-07T16:21:10.979Z,20.22
2018-08-07T16:23:40.876Z,21.18
2018-08-07T16:26:10.148Z,20.60
2018-08-07T16:28:39.074Z,20.45
2018-08-07T16:31:08.156Z,20.58
2018-08-07T16:33:37.128Z,20.28
2018-08-07T16:36:06.516Z,21.28
2018-08-07T16:38:35.679Z,20.81
2018-08-07T16:41:05.300Z,20.78
2018-08-07T16:43:34.292Z,21.28
2018-08-07T16:46:03.240Z,20.78
2018-08-07T16:48:32.175Z,21.80
2018-08-07T16:51:01.353Z,21.47
2018-08-07T16:53:30.328Z,20.79
2018-08-07T16:55:59.290Z,21.75
2018-08-07T16:58:28.945Z,22.51
2018-08-07T17:01:03.570Z,22.30
2018-08-07T17:03:32.519Z,23.72
2018-08-07T17:06:01.481Z,23.38
2018-08-07T17:08:30.375Z,24.09
2018-08-07T17:11:08.867Z,24.72
2018-08-07T17:13:38.216Z,24.03
2018-08-07T17:16:07.167Z,24.69
2018-08-07T17:18:36.136Z,25.28
2018-08-07T17:21:05.078Z,25.03
2018-08-07T17:23:34.020Z,25.57
2018-08-07T17:26:02.962Z,25.19
2018-08-07T17:28:31.905Z,27.07
2018-08-07T17:31:03.738Z,26.79
2018-08-07T17:33:33.808Z,26.97
2018-08-07T17:36:03.416Z,27.47
2018-08-07T17:38:32.323Z,27.74
2018-08-07T17:41:01.287Z,26.75
2018-08-07T17:43:30.859Z,27.59
2018-08-07T17:45:59.976Z,27.38
2018-08-07T17:48:29.016Z,28.21
2018-08-07T17:50:57.945Z,27.95
2018-08-07T17:53:26.993Z,28.25
2018-08-07T17:55:55.992Z,27.52
2018-08-07T17:58:25.004Z,27.82
2018-08-07T18:00:53.934Z,28.21
2018-08-07T18:03:22.904Z,28.85
2018-08-07T18:05:52.591Z,28.48
2018-08-07T18:08:22.491Z,28.83
2018-08-07T18:10:52.305Z,29.01
2018-08-07T18:13:21.242Z,29.70
2018-08-07T18:15:50.163Z,29.59
2018-08-07T18:18:19.203Z,29.43
2018-08-07T18:20:48.269Z,29.10
2018-08-07T18:23:17.200Z,29.29
2018-08-07T18:25:46.160Z,30.53
2018-08-07T18:28:15.083Z,29.81
2018-08-07T18:30:44.130Z,29.92
2018-08-07T18:33:13.064Z,30.60
2018-08-07T18:35:42.006Z,31.13
2018-08-07T18:38:11.021Z,30.54
2018-08-07T18:40:40.127Z,30.68
2018-08-07T18:43:09.670Z,31.98
2018-08-07T18:45:39.041Z,30.98
2018-08-07T18:48:08.024Z,31.58
2018-08-07T18:50:36.999Z,31.95
2018-08-07T18:53:06.116Z,32.14
2018-08-07T18:55:35.065Z,31.52
2018-08-07T18:58:04.026Z,32.30
2018-08-07T19:00:32.977Z,31.59
2018-08-07T19:03:01.921Z,32.89
2018-08-07T19:05:30.852Z,33.43
2018-08-07T19:07:59.837Z,33.30
2018-08-07T19:10:28.937Z,35.30
2018-08-07T19:12:57.920Z,35.03
2018-08-07T19:15:27.094Z,34.77
2018-08-07T19:17:57.194Z,33.79
2018-08-07T19:20:26.903Z,34.13
2018-08-07T19:22:55.995Z,33.88
2018-08-07T19:25:24.944Z,35.49
2018-08-07T19:27:53.928Z,35.05
2018-08-07T19:30:27.013Z,36.22
2018-08-07T19:32:56.067Z,34.95
2018-08-07T19:35:25.064Z,35.37
2018-08-07T19:37:54.069Z,36.75
2018-08-07T19:40:23.000Z,36.22
2018-08-07T19:42:52.151Z,38.58
2018-08-07T19:45:21.359Z,36.01
2018-08-07T19:47:50.301Z,38.42
2018-08-07T19:50:21.079Z,37.47
2018-08-07T19:52:50.994Z,36.82
2018-08-07T19:55:21.630Z,36.62
2018-08-07T19:57:50.614Z,39.20
2018-08-07T20:00:25.737Z,37.43
2018-08-07T20:02:55.123Z,38.79
2018-08-07T20:05:24.240Z,40.60
2018-08-07T20:07:54.049Z,39.56
2018-08-07T20:10:23.254Z,40.96
2018-08-07T20:12:52.558Z,40.14
2018-08-07T20:15:23.954Z,41.07
2018-08-07T20:17:53.561Z,40.77
2018-08-07T20:20:22.916Z,40.34
2018-08-07T20:22:51.919Z,41.49
2018-08-07T20:25:21.029Z,42.58
2018-08-07T20:27:50.641Z,43.05
2018-08-07T20:30:21.474Z,41.07
2018-08-07T20:32:51.822Z,44.12
2018-08-07T20:35:20.751Z,41.60
2018-08-07T20:37:49.706Z,42.27
2018-08-07T20:40:21.568Z,40.45
2018-08-07T20:42:50.921Z,39.88
2018-08-07T20:45:20.542Z,40.38
2018-08-07T20:47:49.568Z,41.00
2018-08-07T20:50:20.917Z,40.74
2018-08-07T20:52:50.091Z,40.88
2018-08-07T20:55:19.268Z,43.02
2018-08-07T20:57:48.200Z,42.40
2018-08-07T21:00:20.551Z,42.60
2018-08-07T21:02:50.072Z,41.98
2018-08-07T21:05:19.577Z,41.87
2018-08-07T21:07:48.533Z,44.07
2018-08-07T21:10:22.472Z,42.07
2018-08-07T21:12:51.400Z,43.46
2018-08-07T21:15:20.319Z,41.70
2018-08-07T21:17:49.284Z,41.31
2018-08-07T21:20:19.584Z,42.21
2018-08-07T21:22:48.593Z,42.62
2018-08-07T21:25:19.909Z,45.95
2018-08-07T21:27:50.866Z,42.69
2018-08-07T21:30:21.185Z,44.17
2018-08-07T21:32:50.169Z,45.44
2018-08-07T21:35:19.132Z,45.61
2018-08-07T21:37:48.788Z,44.22
2018-08-07T21:40:19.422Z,44.90
2018-08-07T21:42:49.222Z,45.42
2018-08-07T21:45:18.408Z,45.92
2018-08-07T21:47:47.373Z,46.87
2018-08-07T21:50:18.366Z,46.62
2018-08-07T21:52:47.872Z,45.35
2018-08-07T21:55:17.887Z,46.68
2018-08-07T21:57:46.856Z,46.81
2018-08-07T22:00:21.970Z,46.16
2018-08-07T22:02:51.041Z,46.31
2018-08-07T22:05:20.165Z,47.30
2018-08-07T22:07:49.234Z,47.97
2018-08-07T22:10:19.820Z,47.64
2018-08-07T22:12:49.452Z,47.06
2018-08-07T22:15:19.882Z,47.88
2018-08-07T22:17:53.620Z,48.22
2018-08-07T22:20:22.650Z,47.03
2018-08-07T22:22:51.601Z,46.86
2018-08-07T22:25:20.694Z,46.27
2018-08-07T22:27:49.652Z,47.60
2018-08-07T22:30:22.707Z,48.65
2018-08-07T22:32:51.825Z,47.96
2018-08-07T22:35:20.761Z,47.95
2018-08-07T22:37:49.737Z,49.03
2018-08-07T22:40:18.816Z,48.42
2018-08-07T22:42:47.743Z,47.13
2018-08-07T22:45:17.914Z,48.74
2018-08-07T22:47:47.866Z,48.21
2018-08-07T22:50:18.497Z,47.49
2018-08-07T22:52:47.605Z,49.31
2018-08-07T22:55:18.877Z,49.41
2018-08-07T22:57:47.905Z,49.42
2018-08-07T23:00:18.726Z,50.06
2018-08-07T23:02:47.523Z,51.66
2018-08-07T23:05:17.560Z,49.89
2018-08-07T23:07:46.486Z,49.90
2018-08-07T23:10:19.848Z,50.20
2018-08-07T23:12:49.243Z,51.88
2018-08-07T23:15:20.094Z,50.22
2018-08-07T23:17:49.240Z,51.36
2018-08-07T23:20:20.845Z,51.60
2018-08-07T23:22:53.466Z,51.88
2018-08-07T23:25:22.444Z,51.74
2018-08-07T23:27:51.412Z,51.92
2018-08-07T23:30:21.119Z,51.55
2018-08-07T23:32:50.130Z,51.31
2018-08-07T23:35:19.029Z,53.50
2018-08-07T23:37:47.997Z,51.97
2018-08-07T23:40:16.916Z,52.88
2018-08-07T23:42:46.190Z,53.16
2018-08-07T23:45:16.074Z,53.47
2018-08-07T23:47:44.978Z,53.67
2018-08-07T23:50:14.528Z,53.91
2018-08-07T23:52:43.628Z,53.71
2018-08-07T23:55:13.235Z,53.68
2018-08-07T23:57:42.219Z,54.26
